createdAt,value
2023-05-19T00:01:54.990Z,102051.47
2023-05-19T00:04:40.549Z,102047.34
2023-05-19T00:07:11.298Z,102058.88
2023-05-19T00:09:38.006Z,102063.47
2023-05-19T00:12:04.846Z,102055.97
2023-05-19T00:14:31.568Z,102052.56
2023-05-19T00:16:58.306Z,102051.06
2023-05-19T00:19:26.217Z,102053.91
2023-05-19T00:21:52.837Z,102050.69
2023-05-19T00:24:19.386Z,102046.56
2023-05-19T00:26:45.801Z,102054.50
2023-05-19T00:29:13.160Z,102043.38
2023-05-19T00:31:39.674Z,102059.25
2023-05-19T00:34:06.616Z,102053.38
2023-05-19T00:36:33.209Z,102043.19
2023-05-19T00:38:59.743Z,102040.88
2023-05-19T00:41:26.599Z,102042.78
2023-05-19T00:43:54.967Z,102048.06
2023-05-19T00:46:23.040Z,102049.16
2023-05-19T00:48:49.674Z,102040.63
2023-05-19T00:51:17.439Z,102042.63
2023-05-19T00:53:48.615Z,102041.06
2023-05-19T00:56:16.980Z,102040.19
2023-05-19T00:58:44.171Z,102036.91
2023-05-19T01:04:00.782Z,102037.22
2023-05-19T01:06:27.778Z,102036.44
2023-05-19T01:08:54.268Z,102028.69
2023-05-19T01:11:21.567Z,102031.53
2023-05-19T01:13:48.375Z,102032.56
2023-05-19T01:16:33.825Z,102032.66
2023-05-19T01:19:30.719Z,102019.88
2023-05-19T01:22:22.984Z,102024.38
2023-05-19T01:25:15.426Z,102024.59
2023-05-19T01:28:08.494Z,102024.88
2023-05-19T01:30:39.792Z,102019.88
2023-05-19T01:33:09.724Z,102019.25
2023-05-19T01:35:38.830Z,102024.66
2023-05-19T01:38:09.266Z,102015.31
2023-05-19T01:40:37.897Z,102015.53
2023-05-19T01:43:04.781Z,102020.75
2023-05-19T01:45:33.567Z,102026.94
2023-05-19T01:48:03.080Z,102023.56
2023-05-19T01:50:30.595Z,102028.97
2023-05-19T01:52:57.263Z,102026.50
2023-05-19T01:58:19.415Z,102032.13
2023-05-19T02:00:54.817Z,102033.09
2023-05-19T02:03:47.335Z,102027.13
2023-05-19T02:06:36.888Z,102035.06
2023-05-19T02:09:16.010Z,102026.63
2023-05-19T02:11:55.650Z,102025.03
2023-05-19T02:14:29.557Z,102037.22
2023-05-19T02:16:57.927Z,102025.19
2023-05-19T02:19:35.574Z,102025.28
2023-05-19T02:22:02.067Z,102031.47
2023-05-19T02:24:28.514Z,102022.94
2023-05-19T02:26:55.008Z,102018.72
2023-05-19T02:29:21.509Z,102027.44
2023-05-19T02:31:50.032Z,102023.91
2023-05-19T02:34:16.630Z,102026.53
2023-05-19T02:36:43.127Z,102023.16
2023-05-19T02:39:10.979Z,102012.81
2023-05-19T02:41:38.131Z,102022.44
2023-05-19T02:44:05.172Z,102013.81
2023-05-19T02:46:31.668Z,102011.25
2023-05-19T02:48:58.119Z,102010.50
2023-05-19T02:51:24.594Z,102002.75
2023-05-19T02:53:55.531Z,102011.47
2023-05-19T03:01:46.217Z,101999.50
2023-05-19T03:04:14.722Z,102002.19
2023-05-19T03:06:42.281Z,102004.91
2023-05-19T03:09:08.737Z,102015.38
2023-05-19T03:11:35.462Z,102007.84
2023-05-19T03:14:01.870Z,102004.31
2023-05-19T03:16:28.420Z,102016.53
2023-05-19T03:18:55.589Z,102015.69
2023-05-19T03:21:22.015Z,102013.28
2023-05-19T03:23:48.518Z,102007.38
2023-05-19T03:26:14.937Z,102021.22
2023-05-19T03:28:41.477Z,102014.47
2023-05-19T03:31:07.935Z,102004.19
2023-05-19T03:33:34.376Z,102009.44
2023-05-19T03:36:00.980Z,102009.53
2023-05-19T03:38:27.420Z,102011.41
2023-05-19T03:40:53.856Z,102016.75
2023-05-19T03:43:20.452Z,102005.53
2023-05-19T03:45:46.916Z,102003.88
2023-05-19T03:48:15.822Z,102015.03
2023-05-19T03:50:44.410Z,102021.22
2023-05-19T03:53:10.853Z,102005.63
2023-05-19T03:55:37.439Z,102009.16
2023-05-19T03:58:03.872Z,102008.22
2023-05-19T04:00:30.697Z,102008.28
2023-05-19T04:02:57.638Z,101997.03
2023-05-19T04:05:24.083Z,101998.75
2023-05-19T04:07:51.064Z,102007.31
2023-05-19T04:10:17.538Z,102009.00
2023-05-19T04:12:43.946Z,102007.19
2023-05-19T04:15:13.876Z,102009.72
2023-05-19T04:17:40.633Z,102006.16
2023-05-19T04:20:07.484Z,102012.03
2023-05-19T04:22:34.202Z,102014.53
2023-05-19T04:25:00.773Z,102017.00
2023-05-19T04:27:29.073Z,102008.94
2023-05-19T04:29:56.122Z,102004.38
2023-05-19T04:32:22.652Z,102005.91
2023-05-19T04:34:49.146Z,102006.53
2023-05-19T04:37:16.333Z,102014.06
2023-05-19T04:39:45.158Z,102006.78
2023-05-19T04:42:11.832Z,102011.38
2023-05-19T04:44:40.125Z,102015.19
2023-05-19T04:47:08.790Z,102018.06
2023-05-19T04:49:38.945Z,102018.34
2023-05-19T04:52:06.928Z,102017.72
2023-05-19T04:54:35.042Z,102024.81
2023-05-19T04:57:01.497Z,102030.13
2023-05-19T04:59:28.020Z,102025.88
2023-05-19T05:01:55.571Z,102030.38
2023-05-19T05:04:23.099Z,102035.66
2023-05-19T05:06:50.390Z,102030.53
2023-05-19T05:09:17.877Z,102026.28
2023-05-19T05:11:44.788Z,102025.44
2023-05-19T05:14:11.659Z,102032.47
2023-05-19T05:16:38.421Z,102023.72
2023-05-19T05:19:05.356Z,102024.66
2023-05-19T05:21:32.936Z,102019.06
2023-05-19T05:23:59.736Z,102021.13
2023-05-19T05:26:30.536Z,102026.25
2023-05-19T05:28:57.037Z,102019.72
2023-05-19T05:31:23.555Z,102025.25
2023-05-19T05:33:50.317Z,102024.78
2023-05-19T05:36:16.762Z,102026.09
2023-05-19T05:38:43.257Z,102020.56
2023-05-19T05:41:09.714Z,102023.97
2023-05-19T05:43:36.205Z,102023.50
2023-05-19T05:46:02.702Z,102014.88
2023-05-19T05:48:29.555Z,102008.56
2023-05-19T05:50:57.193Z,102006.28
2023-05-19T05:53:25.679Z,102010.22
2023-05-19T05:55:53.539Z,102006.41
2023-05-19T05:58:21.226Z,102007.78
2023-05-19T06:00:49.365Z,102010.75
2023-05-19T06:03:16.897Z,102005.00
2023-05-19T06:05:43.614Z,102009.13
2023-05-19T06:08:10.243Z,102009.13
2023-05-19T06:10:38.896Z,102000.03
2023-05-19T06:13:05.562Z,102010.53
2023-05-19T06:15:32.100Z,102009.75
2023-05-19T06:17:59.295Z,102002.00
2023-05-19T06:20:26.266Z,102000.72
2023-05-19T06:22:52.811Z,101998.56
2023-05-19T06:25:20.544Z,102001.94
2023-05-19T06:27:47.122Z,101997.88
2023-05-19T06:30:14.051Z,101998.69
2023-05-19T06:32:40.872Z,101997.75
2023-05-19T06:35:07.809Z,101996.03
2023-05-19T06:37:34.308Z,102001.31
2023-05-19T06:40:00.821Z,102004.59
2023-05-19T06:42:27.284Z,102008.09
2023-05-19T06:44:53.769Z,101999.97
2023-05-19T06:47:20.266Z,102004.41
2023-05-19T06:49:50.635Z,101997.75
2023-05-19T06:52:17.417Z,101999.75
2023-05-19T06:54:44.003Z,101999.91
2023-05-19T06:57:10.496Z,102005.91
2023-05-19T06:59:37.599Z,102003.31
2023-05-19T07:02:04.678Z,102003.91
2023-05-19T07:04:31.235Z,101998.22
2023-05-19T07:06:57.684Z,102003.72
2023-05-19T07:09:24.197Z,101997.56
2023-05-19T07:11:50.785Z,102005.72
2023-05-19T07:14:17.280Z,101999.66
2023-05-19T07:16:43.953Z,101990.06
2023-05-19T07:19:10.546Z,101996.56
2023-05-19T07:21:37.202Z,101990.03
2023-05-19T07:24:03.920Z,101995.41
2023-05-19T07:26:30.536Z,101984.97
2023-05-19T07:28:57.843Z,101984.97
2023-05-19T07:31:24.392Z,101991.78
2023-05-19T07:33:52.305Z,101986.16
2023-05-19T07:36:22.002Z,101986.28
2023-05-19T07:38:48.497Z,101985.59
2023-05-19T07:41:15.019Z,101980.81
2023-05-19T07:43:41.588Z,101981.38
2023-05-19T07:46:08.094Z,101984.56
2023-05-19T07:48:34.632Z,101989.97
2023-05-19T07:51:02.489Z,101979.88
2023-05-19T07:53:29.080Z,101980.03
2023-05-19T07:55:58.374Z,101974.97
2023-05-19T07:58:25.344Z,101971.94
2023-05-19T08:00:51.887Z,101970.66
2023-05-19T08:03:18.633Z,101967.13
2023-05-19T08:05:45.559Z,101968.28
2023-05-19T08:08:12.754Z,101966.13
2023-05-19T08:10:39.526Z,101967.28
2023-05-19T08:13:06.080Z,101965.66
2023-05-19T08:15:32.915Z,101977.50
2023-05-19T08:17:59.438Z,101968.75
2023-05-19T08:20:25.960Z,101968.63
2023-05-19T08:22:52.433Z,101962.28
2023-05-19T08:25:19.753Z,101955.81
2023-05-19T08:27:46.389Z,101960.06
2023-05-19T08:30:13.366Z,101964.97
2023-05-19T08:32:39.889Z,101952.19
2023-05-19T08:35:07.625Z,101957.78
2023-05-19T08:37:36.999Z,101947.47
2023-05-19T08:40:05.408Z,101952.28
2023-05-19T08:42:33.208Z,101950.31
2023-05-19T08:45:01.638Z,101944.63
2023-05-19T08:47:28.648Z,101940.78
2023-05-19T08:50:03.847Z,101937.41
2023-05-19T08:52:58.309Z,101947.59
2023-05-19T08:55:54.846Z,101945.44
2023-05-19T08:58:22.006Z,101937.16
2023-05-19T09:00:49.321Z,101928.56
2023-05-19T09:03:23.756Z,101921.00
2023-05-19T09:05:51.028Z,101926.56
2023-05-19T09:08:18.383Z,101922.75
2023-05-19T09:10:45.072Z,101917.31
2023-05-19T09:13:11.738Z,101922.75
2023-05-19T09:15:39.161Z,101909.72
2023-05-19T09:18:10.537Z,101920.03
2023-05-19T09:20:41.587Z,101915.41
2023-05-19T09:23:13.696Z,101914.97
2023-05-19T09:25:50.797Z,101918.75
2023-05-19T09:28:34.298Z,101910.25
2023-05-19T09:31:01.441Z,101906.16
2023-05-19T09:33:28.721Z,101905.56
2023-05-19T09:35:56.762Z,101907.50
2023-05-19T09:38:27.530Z,101899.59
2023-05-19T09:40:57.298Z,101893.78
2023-05-19T09:43:24.077Z,101890.31
2023-05-19T09:46:01.479Z,101890.63
2023-05-19T09:48:28.120Z,101871.56
2023-05-19T09:50:55.012Z,101878.13
2023-05-19T09:53:23.062Z,101874.06
2023-05-19T09:55:51.433Z,101872.16
2023-05-19T09:58:21.579Z,101875.03
2023-05-19T10:00:48.296Z,101870.72
2023-05-19T10:03:17.666Z,101870.41
2023-05-19T10:05:44.873Z,101868.28
2023-05-19T10:08:12.421Z,101874.69
2023-05-19T10:10:39.076Z,101877.53
2023-05-19T10:13:06.365Z,101884.06
2023-05-19T10:15:40.660Z,101882.28
2023-05-19T10:18:17.667Z,101875.56
2023-05-19T10:20:44.732Z,101874.63
2023-05-19T10:23:11.264Z,101885.81
2023-05-19T10:25:38.595Z,101876.19
2023-05-19T10:28:18.510Z,101879.50
2023-05-19T10:30:47.680Z,101868.31
2023-05-19T10:33:18.129Z,101878.91
2023-05-19T10:35:47.682Z,101877.53
2023-05-19T10:38:33.468Z,101866.50
2023-05-19T10:41:10.590Z,101860.75
2023-05-19T10:44:27.670Z,101867.38
2023-05-19T10:46:56.794Z,101871.88
2023-05-19T10:49:24.057Z,101865.09
2023-05-19T10:51:52.438Z,101868.81
2023-05-19T10:54:40.750Z,101859.75
2023-05-19T10:57:08.330Z,101863.06
2023-05-19T10:59:37.768Z,101852.31
2023-05-19T11:02:05.196Z,101848.28
2023-05-19T11:05:07.668Z,101849.44
2023-05-19T11:07:34.256Z,101849.75
2023-05-19T11:10:07.479Z,101844.88
2023-05-19T11:12:43.008Z,101844.78
2023-05-19T11:15:14.900Z,101842.97
2023-05-19T11:17:45.152Z,101843.69
2023-05-19T11:20:25.945Z,101834.47
2023-05-19T11:23:09.263Z,101833.25
2023-05-19T11:25:53.808Z,101823.63
2023-05-19T11:28:26.312Z,101837.94
2023-05-19T11:30:55.243Z,101829.97
2023-05-19T11:33:26.990Z,101827.97
2023-05-19T11:35:55.482Z,101832.59
2023-05-19T11:38:23.612Z,101837.06
2023-05-19T11:40:53.542Z,101834.75
2023-05-19T11:43:22.825Z,101828.47
2023-05-19T11:45:49.590Z,101825.81
2023-05-19T11:48:17.315Z,101824.16
2023-05-19T11:50:44.215Z,101819.50
2023-05-19T11:53:15.041Z,101822.00
2023-05-19T11:55:49.194Z,101808.19
2023-05-19T11:58:16.690Z,101808.50
2023-05-19T12:00:46.025Z,101808.69
2023-05-19T12:03:13.238Z,101810.50
2023-05-19T12:05:45.354Z,101808.03
2023-05-19T12:08:12.741Z,101811.34
2023-05-19T12:10:40.212Z,101815.41
2023-05-19T12:13:09.433Z,101796.88
2023-05-19T12:15:36.713Z,101790.94
2023-05-19T12:18:03.798Z,101792.88
2023-05-19T12:20:32.458Z,101788.56
2023-05-19T12:23:00.544Z,101794.41
2023-05-19T12:25:28.521Z,101785.91
2023-05-19T12:28:00.241Z,101782.25
2023-05-19T12:30:30.984Z,101789.56
2023-05-19T12:32:58.153Z,101793.06
2023-05-19T12:35:29.610Z,101790.41
2023-05-19T12:37:56.196Z,101780.94
2023-05-19T12:40:22.838Z,101782.41
2023-05-19T12:42:52.105Z,101774.94
2023-05-19T12:45:21.863Z,101772.41
2023-05-19T12:47:49.321Z,101778.03
2023-05-19T12:50:16.142Z,101774.84
2023-05-19T12:52:44.747Z,101781.81
2023-05-19T12:55:12.139Z,101780.50
2023-05-19T12:57:44.091Z,101772.59
2023-05-19T13:00:16.638Z,101754.44
2023-05-19T13:03:06.651Z,101762.06
2023-05-19T13:05:44.490Z,101760.88
2023-05-19T13:08:16.210Z,101776.88
2023-05-19T13:10:44.332Z,101772.03
2023-05-19T13:13:11.688Z,101770.06
2023-05-19T13:15:41.129Z,101757.16
2023-05-19T13:18:10.294Z,101762.91
2023-05-19T13:20:38.468Z,101762.06
2023-05-19T13:23:05.729Z,101754.72
2023-05-19T13:25:35.461Z,101753.84
2023-05-19T13:28:05.501Z,101755.50
2023-05-19T13:30:32.648Z,101751.41
2023-05-19T13:32:59.492Z,101744.56
2023-05-19T13:35:26.061Z,101751.78
2023-05-19T13:37:52.567Z,101739.34
2023-05-19T13:40:19.320Z,101743.13
2023-05-19T13:42:46.204Z,101742.06
2023-05-19T13:45:12.788Z,101739.53
2023-05-19T13:47:39.520Z,101739.09
2023-05-19T13:50:06.884Z,101735.56
2023-05-19T13:52:33.684Z,101733.94
2023-05-19T13:55:00.245Z,101723.41
2023-05-19T13:57:26.776Z,101733.31
2023-05-19T14:00:01.760Z,101726.22
2023-05-19T14:02:30.394Z,101730.03
2023-05-19T14:04:57.521Z,101726.91
2023-05-19T14:07:24.163Z,101727.06
2023-05-19T14:09:51.938Z,101724.38
2023-05-19T14:12:18.664Z,101722.53
2023-05-19T14:14:45.756Z,101728.66
2023-05-19T14:17:12.232Z,101711.91
2023-05-19T14:19:38.904Z,101714.91
2023-05-19T14:22:05.676Z,101721.81
2023-05-19T14:24:32.340Z,101712.25
2023-05-19T14:26:58.839Z,101714.19
2023-05-19T14:29:25.398Z,101710.88
2023-05-19T14:31:51.950Z,101715.81
2023-05-19T14:34:20.948Z,101717.16
2023-05-19T14:36:48.645Z,101710.56
2023-05-19T14:39:15.490Z,101709.41
2023-05-19T14:41:42.025Z,101703.75
2023-05-19T14:44:08.534Z,101707.06
2023-05-19T14:46:35.098Z,101708.63
2023-05-19T14:49:01.889Z,101718.22
2023-05-19T14:51:28.327Z,101709.34
2023-05-19T14:53:54.808Z,101700.09
2023-05-19T14:56:22.552Z,101707.09
2023-05-19T14:58:49.036Z,101708.56
2023-05-19T15:01:15.547Z,101703.97
2023-05-19T15:03:42.079Z,101697.63
2023-05-19T15:06:10.606Z,101695.13
2023-05-19T15:08:41.418Z,101694.41
2023-05-19T15:11:08.066Z,101686.59
2023-05-19T15:13:34.578Z,101690.56
2023-05-19T15:16:12.536Z,101684.16
2023-05-19T15:18:44.118Z,101679.19
2023-05-19T15:21:10.746Z,101686.47
2023-05-19T15:23:37.197Z,101677.88
2023-05-19T15:26:03.878Z,101692.81
2023-05-19T15:28:30.350Z,101690.06
2023-05-19T15:30:56.829Z,101682.16
2023-05-19T15:33:23.397Z,101686.69
2023-05-19T15:35:51.721Z,101685.81
2023-05-19T15:38:21.102Z,101675.78
2023-05-19T15:40:47.676Z,101673.69
2023-05-19T15:43:14.183Z,101671.09
2023-05-19T15:45:40.948Z,101668.31
2023-05-19T15:48:07.633Z,101662.16
2023-05-19T15:50:34.483Z,101662.41
2023-05-19T15:53:01.258Z,101667.75
2023-05-19T15:55:27.750Z,101665.38
2023-05-19T15:57:54.188Z,101661.41
2023-05-19T16:00:20.846Z,101663.47
2023-05-19T16:02:47.462Z,101674.16
2023-05-19T16:05:14.077Z,101656.31
2023-05-19T16:07:41.992Z,101653.69
2023-05-19T16:10:09.083Z,101649.28
2023-05-19T16:12:36.578Z,101648.06
2023-05-19T16:15:03.484Z,101646.47
2023-05-19T16:17:30.096Z,101643.44
2023-05-19T16:19:56.649Z,101645.91
2023-05-19T16:22:24.811Z,101634.16
2023-05-19T16:24:52.116Z,101634.78
2023-05-19T16:27:18.850Z,101640.28
2023-05-19T16:29:45.368Z,101634.31
2023-05-19T16:32:12.324Z,101634.34
2023-05-19T16:34:38.857Z,101635.72
2023-05-19T16:37:05.385Z,101637.72
2023-05-19T16:39:32.421Z,101629.56
2023-05-19T16:41:58.883Z,101631.59
2023-05-19T16:44:25.650Z,101629.63
2023-05-19T16:46:52.178Z,101629.81
2023-05-19T16:49:22.635Z,101631.97
2023-05-19T16:51:49.168Z,101624.16
2023-05-19T16:54:15.723Z,101628.69
2023-05-19T16:56:42.177Z,101627.84
2023-05-19T16:59:09.162Z,101615.50
2023-05-19T17:01:35.715Z,101627.97
2023-05-19T17:04:02.280Z,101612.19
2023-05-19T17:06:28.840Z,101626.63
2023-05-19T17:08:55.296Z,101620.16
2023-05-19T17:11:21.799Z,101626.47
2023-05-19T17:13:48.290Z,101625.47
2023-05-19T17:16:14.999Z,101630.09
2023-05-19T17:18:41.810Z,101631.59
2023-05-19T17:21:08.271Z,101613.28
2023-05-19T17:23:34.868Z,101617.41
2023-05-19T17:26:01.872Z,101612.78
2023-05-19T17:28:28.566Z,101623.41
2023-05-19T17:30:55.064Z,101621.72
2023-05-19T17:33:21.610Z,101625.00
2023-05-19T17:35:48.128Z,101624.81
2023-05-19T17:38:14.567Z,101633.41
2023-05-19T17:40:42.167Z,101630.38
2023-05-19T17:43:08.969Z,101639.34
2023-05-19T17:45:35.593Z,101629.31
2023-05-19T17:48:02.372Z,101642.28
2023-05-19T17:50:28.886Z,101636.78
2023-05-19T17:52:56.170Z,101648.63
2023-05-19T17:55:24.761Z,101639.63
2023-05-19T17:57:51.446Z,101647.69
2023-05-19T18:00:19.150Z,101650.00
2023-05-19T18:02:46.140Z,101642.72
2023-05-19T18:05:13.413Z,101651.91
2023-05-19T18:07:42.070Z,101645.44
2023-05-19T18:10:09.310Z,101648.38
2023-05-19T18:12:35.970Z,101659.69
2023-05-19T18:15:03.291Z,101659.53
2023-05-19T18:17:29.861Z,101652.56
2023-05-19T18:19:56.358Z,101652.50
2023-05-19T18:22:22.900Z,101654.31
2023-05-19T18:24:49.400Z,101649.94
2023-05-19T18:27:15.847Z,101657.41
2023-05-19T18:29:42.379Z,101660.81
2023-05-19T18:32:09.241Z,101661.00
2023-05-19T18:34:35.870Z,101661.13
2023-05-19T18:37:02.397Z,101656.06
2023-05-19T18:39:29.417Z,101662.34
2023-05-19T18:41:56.023Z,101662.97
2023-05-19T18:44:22.688Z,101660.31
2023-05-19T18:46:49.153Z,101661.44
2023-05-19T18:49:15.772Z,101667.72
2023-05-19T18:51:42.484Z,101674.16
2023-05-19T18:54:09.190Z,101672.09
2023-05-19T18:56:35.708Z,101679.94
2023-05-19T18:59:02.237Z,101677.47
2023-05-19T19:01:29.009Z,101671.78
2023-05-19T19:03:55.813Z,101672.09
2023-05-19T19:06:23.248Z,101673.78
2023-05-19T19:08:49.998Z,101684.16
2023-05-19T19:11:16.566Z,101682.09
2023-05-19T19:13:43.646Z,101679.06
2023-05-19T19:16:10.306Z,101692.28
2023-05-19T19:18:36.900Z,101673.91
2023-05-19T19:21:05.565Z,101689.84
2023-05-19T19:23:32.604Z,101692.94
2023-05-19T19:25:59.215Z,101693.78
2023-05-19T19:28:26.072Z,101687.72
2023-05-19T19:30:52.566Z,101698.41
2023-05-19T19:33:19.117Z,101698.00
2023-05-19T19:35:46.949Z,101706.53
2023-05-19T19:38:13.765Z,101701.50
2023-05-19T19:40:40.309Z,101707.09
2023-05-19T19:43:06.819Z,101704.56
2023-05-19T19:45:34.762Z,101712.78
2023-05-19T19:48:01.689Z,101705.28
2023-05-19T19:50:28.356Z,101711.81
2023-05-19T19:52:54.803Z,101718.38
2023-05-19T19:55:21.601Z,101721.31
2023-05-19T19:57:49.515Z,101720.03
2023-05-19T20:00:16.599Z,101714.78
2023-05-19T20:02:55.885Z,101712.25
2023-05-19T20:05:29.751Z,101721.44
2023-05-19T20:07:56.275Z,101717.25
2023-05-19T20:10:22.765Z,101727.94
2023-05-19T20:12:50.480Z,101731.84
2023-05-19T20:15:17.089Z,101728.88
2023-05-19T20:17:43.599Z,101734.06
2023-05-19T20:20:12.104Z,101742.50
2023-05-19T20:22:39.431Z,101731.38
2023-05-19T20:25:06.578Z,101739.31
2023-05-19T20:27:33.160Z,101733.47
2023-05-19T20:29:59.691Z,101740.81
2023-05-19T20:32:26.180Z,101735.13
2023-05-19T20:34:52.726Z,101734.41
2023-05-19T20:37:19.174Z,101734.00
2023-05-19T20:39:45.678Z,101740.38
2023-05-19T20:42:12.245Z,101736.31
2023-05-19T20:44:38.824Z,101734.06
2023-05-19T20:47:08.016Z,101741.31
2023-05-19T20:49:34.873Z,101734.47
2023-05-19T20:52:01.403Z,101735.72
2023-05-19T20:54:27.896Z,101739.47
2023-05-19T20:56:56.113Z,101745.72
2023-05-19T20:59:22.603Z,101753.19
2023-05-19T21:01:49.156Z,101749.03
2023-05-19T21:04:15.958Z,101753.97
2023-05-19T21:06:42.477Z,101752.69
2023-05-19T21:09:09.493Z,101749.50
2023-05-19T21:11:35.990Z,101752.41
2023-05-19T21:14:04.188Z,101757.56
2023-05-19T21:16:31.574Z,101758.06
2023-05-19T21:18:58.296Z,101756.59
2023-05-19T21:21:24.982Z,101754.13
2023-05-19T21:23:51.803Z,101759.91
2023-05-19T21:26:18.301Z,101767.13
2023-05-19T21:28:44.794Z,101764.59
2023-05-19T21:31:18.737Z,101760.69
2023-05-19T21:33:45.340Z,101764.78
2023-05-19T21:36:12.318Z,101769.38
2023-05-19T21:38:38.757Z,101765.56
2023-05-19T21:41:05.241Z,101764.97
2023-05-19T21:43:31.700Z,101773.16
2023-05-19T21:45:58.217Z,101769.94
2023-05-19T21:48:24.756Z,101769.34
2023-05-19T21:50:55.290Z,101770.69
2023-05-19T21:53:21.845Z,101763.88
2023-05-19T21:55:48.401Z,101768.72
2023-05-19T21:58:14.988Z,101768.94
2023-05-19T22:00:41.660Z,101768.25
2023-05-19T22:03:08.183Z,101778.06
2023-05-19T22:05:35.426Z,101770.41
2023-05-19T22:08:01.979Z,101762.06
2023-05-19T22:10:28.486Z,101765.88
2023-05-19T22:12:55.465Z,101753.94
2023-05-19T22:15:21.968Z,101764.84
2023-05-19T22:17:48.491Z,101766.91
2023-05-19T22:20:14.981Z,101765.59
2023-05-19T22:22:42.008Z,101761.53
2023-05-19T22:25:08.600Z,101767.16
2023-05-19T22:27:35.210Z,101770.16
2023-05-19T22:30:01.680Z,101774.94
2023-05-19T22:32:28.590Z,101768.38
2023-05-19T22:34:55.156Z,101768.59
2023-05-19T22:37:22.910Z,101768.00
2023-05-19T22:39:49.386Z,101760.38
2023-05-19T22:42:15.828Z,101764.31
2023-05-19T22:44:43.492Z,101763.84
2023-05-19T22:47:13.426Z,101763.84
2023-05-19T22:49:40.935Z,101764.19
2023-05-19T22:52:09.954Z,101761.69
2023-05-19T22:54:36.899Z,101758.34
2023-05-19T22:57:03.535Z,101755.00
2023-05-19T22:59:30.059Z,101759.66
2023-05-19T23:01:56.510Z,101765.28
2023-05-19T23:04:39.353Z,101761.94
2023-05-19T23:07:05.767Z,101759.69
2023-05-19T23:09:32.262Z,101762.78
2023-05-19T23:11:58.685Z,101755.13
2023-05-19T23:14:25.986Z,101762.53
2023-05-19T23:16:52.452Z,101759.44
2023-05-19T23:19:20.437Z,101755.44
2023-05-19T23:22:01.956Z,101762.03
2023-05-19T23:24:28.419Z,101757.13
2023-05-19T23:26:55.013Z,101751.50
2023-05-19T23:29:21.520Z,101759.50
2023-05-19T23:31:48.056Z,101764.03
2023-05-19T23:34:14.529Z,101768.56
2023-05-19T23:36:41.084Z,101754.59
2023-05-19T23:39:07.638Z,101760.06
2023-05-19T23:41:34.084Z,101755.28
2023-05-19T23:44:00.627Z,101746.06
2023-05-19T23:46:27.260Z,101745.72
2023-05-19T23:48:53.792Z,101740.06
2023-05-19T23:51:20.381Z,101745.13
2023-05-19T23:53:46.858Z,101744.53
2023-05-19T23:56:13.280Z,101738.78
2023-05-19T23:58:39.790Z,101746.97
